sensor_id;sensor_type;location;lat;lon;timestamp;pressure;altitude;pressure_sealevel;temperature;humidity
51496;BME280;37572;52.094;4.870;2023-06-22T00:00:50;102022.88;;;22.12;57.01
51496;BME280;37572;52.094;4.870;2023-06-22T00:03:21;102027.28;;;22.13;57.15
51496;BME280;37572;52.094;4.870;2023-06-22T00:05:48;102025.59;;;22.12;57.04
51496;BME280;37572;52.094;4.870;2023-06-22T00:08:14;102024.78;;;22.12;56.64
51496;BME280;37572;52.094;4.870;2023-06-22T00:10:40;102027.69;;;22.10;57.14
51496;BME280;37572;52.094;4.870;2023-06-22T00:13:07;102026.81;;;22.10;56.80
51496;BME280;37572;52.094;4.870;2023-06-22T00:15:33;102032.25;;;22.10;57.16
51496;BME280;37572;52.094;4.870;2023-06-22T00:17:58;102029.53;;;22.10;57.11
51496;BME280;37572;52.094;4.870;2023-06-22T00:20:25;102021.41;;;22.10;57.13
51496;BME280;37572;52.094;4.870;2023-06-22T00:22:54;102022.47;;;22.09;56.92
51496;BME280;37572;52.094;4.870;2023-06-22T00:25:19;102012.00;;;22.06;56.69
51496;BME280;37572;52.094;4.870;2023-06-22T00:27:45;102012.41;;;22.03;56.70
51496;BME280;37572;52.094;4.870;2023-06-22T00:30:10;102008.06;;;22.02;57.01
51496;BME280;37572;52.094;4.870;2023-06-22T00:32:36;102010.75;;;22.02;56.88
51496;BME280;37572;52.094;4.870;2023-06-22T00:35:01;102011.16;;;21.98;56.92
51496;BME280;37572;52.094;4.870;2023-06-22T00:37:26;102012.41;;;21.96;56.96
51496;BME280;37572;52.094;4.870;2023-06-22T00:39:55;102001.94;;;21.93;56.75
51496;BME280;37572;52.094;4.870;2023-06-22T00:42:21;101997.59;;;21.92;56.76
51496;BME280;37572;52.094;4.870;2023-06-22T00:44:46;102000.50;;;21.90;56.87
51496;BME280;37572;52.094;4.870;2023-06-22T00:47:14;101994.66;;;21.87;57.05
51496;BME280;37572;52.094;4.870;2023-06-22T00:49:41;101987.31;;;21.80;57.03
51496;BME280;37572;52.094;4.870;2023-06-22T00:52:07;101988.13;;;21.74;56.96
51496;BME280;37572;52.094;4.870;2023-06-22T00:54:35;101983.28;;;21.70;57.09
51496;BME280;37572;52.094;4.870;2023-06-22T00:57:01;101983.06;;;21.65;57.13
51496;BME280;37572;52.094;4.870;2023-06-22T00:59:26;101987.88;;;21.62;57.23
51496;BME280;37572;52.094;4.870;2023-06-22T01:01:52;101991.41;;;21.63;57.22
51496;BME280;37572;52.094;4.870;2023-06-22T01:04:17;101984.94;;;21.64;57.24
51496;BME280;37572;52.094;4.870;2023-06-22T01:06:52;101990.16;;;21.66;57.21
51496;BME280;37572;52.094;4.870;2023-06-22T01:09:22;101992.25;;;21.64;57.54
51496;BME280;37572;52.094;4.870;2023-06-22T01:11:55;101988.69;;;21.63;57.65
51496;BME280;37572;52.094;4.870;2023-06-22T01:16:56;101987.47;;;21.66;57.52
51496;BME280;37572;52.094;4.870;2023-06-22T01:22:03;101989.53;;;21.64;57.49
51496;BME280;37572;52.094;4.870;2023-06-22T01:24:33;101984.94;;;21.64;57.84
51496;BME280;37572;52.094;4.870;2023-06-22T01:27:21;101984.75;;;21.66;57.49
51496;BME280;37572;52.094;4.870;2023-06-22T01:29:52;101984.94;;;21.64;57.38
51496;BME280;37572;52.094;4.870;2023-06-22T01:32:28;101978.69;;;21.57;57.38
51496;BME280;37572;52.094;4.870;2023-06-22T01:34:56;101981.34;;;21.50;57.47
51496;BME280;37572;52.094;4.870;2023-06-22T01:37:22;101984.63;;;21.46;57.40
51496;BME280;37572;52.094;4.870;2023-06-22T01:39:48;101983.13;;;21.43;57.48
51496;BME280;37572;52.094;4.870;2023-06-22T01:42:13;101985.41;;;21.39;57.74
51496;BME280;37572;52.094;4.870;2023-06-22T01:44:39;101987.88;;;21.34;57.89
51496;BME280;37572;52.094;4.870;2023-06-22T01:47:06;101982.03;;;21.31;58.11
51496;BME280;37572;52.094;4.870;2023-06-22T01:49:32;101979.53;;;21.29;58.08
51496;BME280;37572;52.094;4.870;2023-06-22T01:51:57;101975.78;;;21.30;58.12
51496;BME280;37572;52.094;4.870;2023-06-22T01:54:23;101970.56;;;21.29;58.29
51496;BME280;37572;52.094;4.870;2023-06-22T01:56:49;101972.00;;;21.24;58.07
51496;BME280;37572;52.094;4.870;2023-06-22T02:02:10;101971.50;;;21.14;57.95
51496;BME280;37572;52.094;4.870;2023-06-22T02:05:16;101966.50;;;21.11;58.08
51496;BME280;37572;52.094;4.870;2023-06-22T02:07:49;101965.66;;;21.11;58.01
51496;BME280;37572;52.094;4.870;2023-06-22T02:10:19;101971.09;;;21.11;58.22
51496;BME280;37572;52.094;4.870;2023-06-22T02:12:47;101965.66;;;21.11;58.23
51496;BME280;37572;52.094;4.870;2023-06-22T02:15:13;101975.19;;;21.06;58.14
51496;BME280;37572;52.094;4.870;2023-06-22T02:17:39;101973.13;;;21.02;57.89
51496;BME280;37572;52.094;4.870;2023-06-22T02:20:12;101971.44;;;21.01;58.29
51496;BME280;37572;52.094;4.870;2023-06-22T02:22:38;101967.50;;;21.03;58.13
51496;BME280;37572;52.094;4.870;2023-06-22T02:25:03;101962.09;;;21.03;58.25
51496;BME280;37572;52.094;4.870;2023-06-22T02:27:29;101969.34;;;21.03;58.16
51496;BME280;37572;52.094;4.870;2023-06-22T02:29:54;101964.31;;;21.00;57.96
51496;BME280;37572;52.094;4.870;2023-06-22T02:32:19;101963.44;;;20.93;57.99
51496;BME280;37572;52.094;4.870;2023-06-22T02:34:45;101963.22;;;20.87;57.98
51496;BME280;37572;52.094;4.870;2023-06-22T02:37:13;101959.63;;;20.80;57.68
51496;BME280;37572;52.094;4.870;2023-06-22T02:39:39;101960.59;;;20.73;57.67
51496;BME280;37572;52.094;4.870;2023-06-22T02:42:05;101954.31;;;20.65;57.69
51496;BME280;37572;52.094;4.870;2023-06-22T02:44:30;101961.47;;;20.58;57.89
51496;BME280;37572;52.094;4.870;2023-06-22T02:46:56;101957.13;;;20.57;57.82
51496;BME280;37572;52.094;4.870;2023-06-22T02:49:21;101952.97;;;20.61;58.04
51496;BME280;37572;52.094;4.870;2023-06-22T02:51:47;101957.63;;;20.67;57.81
51496;BME280;37572;52.094;4.870;2023-06-22T02:54:13;101964.13;;;20.73;57.99
51496;BME280;37572;52.094;4.870;2023-06-22T02:56:38;101965.44;;;20.77;58.24
51496;BME280;37572;52.094;4.870;2023-06-22T02:59:05;101967.75;;;20.80;57.99
51496;BME280;37572;52.094;4.870;2023-06-22T03:01:31;101961.94;;;20.83;58.20
51496;BME280;37572;52.094;4.870;2023-06-22T03:04:03;101955.69;;;20.83;58.30
51496;BME280;37572;52.094;4.870;2023-06-22T03:06:28;101964.84;;;20.82;58.12
51496;BME280;37572;52.094;4.870;2023-06-22T03:08:59;101965.44;;;20.77;58.12
51496;BME280;37572;52.094;4.870;2023-06-22T03:11:25;101958.72;;;20.73;57.89
51496;BME280;37572;52.094;4.870;2023-06-22T03:13:50;101964.31;;;20.72;57.81
51496;BME280;37572;52.094;4.870;2023-06-22T03:16:18;101964.13;;;20.73;58.08
51496;BME280;37572;52.094;4.870;2023-06-22T03:18:44;101967.50;;;20.75;58.21
51496;BME280;37572;52.094;4.870;2023-06-22T03:21:09;101967.94;;;20.79;58.38
51496;BME280;37572;52.094;4.870;2023-06-22T03:23:35;101953.81;;;20.83;58.40
51496;BME280;37572;52.094;4.870;2023-06-22T03:26:01;101950.50;;;20.88;58.48
51496;BME280;37572;52.094;4.870;2023-06-22T03:28:26;101941.34;;;20.89;58.38
51496;BME280;37572;52.094;4.870;2023-06-22T03:30:51;101942.56;;;20.86;58.18
51496;BME280;37572;52.094;4.870;2023-06-22T03:33:16;101933.00;;;20.84;58.22
51496;BME280;37572;52.094;4.870;2023-06-22T03:35:42;101937.13;;;20.80;58.23
51496;BME280;37572;52.094;4.870;2023-06-22T03:38:07;101937.06;;;20.73;57.77
51496;BME280;37572;52.094;4.870;2023-06-22T03:40:33;101937.44;;;20.63;57.97
51496;BME280;37572;52.094;4.870;2023-06-22T03:42:58;101941.72;;;20.58;57.78
51496;BME280;37572;52.094;4.870;2023-06-22T03:45:23;101931.03;;;20.49;57.61
51496;BME280;37572;52.094;4.870;2023-06-22T03:47:48;101941.78;;;20.43;57.45
51496;BME280;37572;52.094;4.870;2023-06-22T03:50:14;101927.75;;;20.32;57.42
51496;BME280;37572;52.094;4.870;2023-06-22T03:52:40;101926.41;;;20.22;57.41
51496;BME280;37572;52.094;4.870;2023-06-22T03:55:06;101928.19;;;20.14;57.54
51496;BME280;37572;52.094;4.870;2023-06-22T03:57:31;101920.47;;;20.11;57.74
51496;BME280;37572;52.094;4.870;2023-06-22T03:59:57;101926.75;;;20.12;57.85
51496;BME280;37572;52.094;4.870;2023-06-22T04:02:23;101919.47;;;20.12;57.91
51496;BME280;37572;52.094;4.870;2023-06-22T04:04:48;101936.50;;;20.13;57.90
51496;BME280;37572;52.094;4.870;2023-06-22T04:07:14;101928.41;;;20.13;58.21
51496;BME280;37572;52.094;4.870;2023-06-22T04:09:39;101920.09;;;20.14;57.83
51496;BME280;37572;52.094;4.870;2023-06-22T04:12:05;101923.06;;;20.20;58.14
51496;BME280;37572;52.094;4.870;2023-06-22T04:14:30;101925.44;;;20.29;58.35
51496;BME280;37572;52.094;4.870;2023-06-22T04:16:55;101921.38;;;20.40;58.21
51496;BME280;37572;52.094;4.870;2023-06-22T04:19:21;101919.19;;;20.50;58.57
51496;BME280;37572;52.094;4.870;2023-06-22T04:21:46;101919.22;;;20.57;58.30
51496;BME280;37572;52.094;4.870;2023-06-22T04:24:13;101916.41;;;20.65;58.65
51496;BME280;37572;52.094;4.870;2023-06-22T04:26:39;101915.84;;;20.70;58.65
51496;BME280;37572;52.094;4.870;2023-06-22T04:29:06;101912.13;;;20.78;58.72
51496;BME280;37572;52.094;4.870;2023-06-22T04:31:34;101916.56;;;20.85;58.81
51496;BME280;37572;52.094;4.870;2023-06-22T04:34:02;101917.22;;;20.94;58.80
51496;BME280;37572;52.094;4.870;2023-06-22T04:36:39;101918.31;;;21.00;58.79
51496;BME280;37572;52.094;4.870;2023-06-22T04:39:10;101920.63;;;21.03;58.58
51496;BME280;37572;52.094;4.870;2023-06-22T04:41:39;101923.16;;;21.11;59.06
51496;BME280;37572;52.094;4.870;2023-06-22T04:44:15;101928.03;;;21.22;58.79
51496;BME280;37572;52.094;4.870;2023-06-22T04:46:50;101924.56;;;21.35;59.02
51496;BME280;37572;52.094;4.870;2023-06-22T04:49:20;101924.19;;;21.45;58.98
51496;BME280;37572;52.094;4.870;2023-06-22T04:51:46;101936.75;;;21.53;58.95
51496;BME280;37572;52.094;4.870;2023-06-22T04:54:11;101930.94;;;21.62;58.55
51496;BME280;37572;52.094;4.870;2023-06-22T04:56:37;101933.09;;;21.80;58.83
51496;BME280;37572;52.094;4.870;2023-06-22T04:59:03;101940.25;;;22.02;58.79
51496;BME280;37572;52.094;4.870;2023-06-22T05:01:29;101938.63;;;22.21;58.74
51496;BME280;37572;52.094;4.870;2023-06-22T05:03:56;101927.19;;;22.39;58.78
51496;BME280;37572;52.094;4.870;2023-06-22T05:06:23;101929.50;;;22.55;58.64
51496;BME280;37572;52.094;4.870;2023-06-22T05:08:59;101925.09;;;22.67;58.54
51496;BME280;37572;52.094;4.870;2023-06-22T05:11:28;101928.81;;;22.80;58.34
51496;BME280;37572;52.094;4.870;2023-06-22T05:13:54;101928.41;;;22.89;58.27
51496;BME280;37572;52.094;4.870;2023-06-22T05:16:20;101929.03;;;22.98;58.08
51496;BME280;37572;52.094;4.870;2023-06-22T05:18:53;101933.00;;;23.09;57.83
51496;BME280;37572;52.094;4.870;2023-06-22T05:21:25;101923.78;;;23.23;58.03
51496;BME280;37572;52.094;4.870;2023-06-22T05:23:52;101923.28;;;23.40;57.83
51496;BME280;37572;52.094;4.870;2023-06-22T05:26:19;101928.44;;;23.55;58.07
51496;BME280;37572;52.094;4.870;2023-06-22T05:28:45;101927.72;;;23.73;58.27
51496;BME280;37572;52.094;4.870;2023-06-22T05:31:14;101928.94;;;23.90;57.93
51496;BME280;37572;52.094;4.870;2023-06-22T05:33:41;101923.59;;;24.09;58.18
51496;BME280;37572;52.094;4.870;2023-06-22T05:36:06;101928.06;;;24.28;57.86
51496;BME280;37572;52.094;4.870;2023-06-22T05:38:32;101926.00;;;24.49;57.44
51496;BME280;37572;52.094;4.870;2023-06-22T05:40:58;101933.59;;;24.72;57.60
51496;BME280;37572;52.094;4.870;2023-06-22T05:43:23;101933.97;;;24.94;57.50
51496;BME280;37572;52.094;4.870;2023-06-22T05:45:48;101928.09;;;25.16;57.18
51496;BME280;37572;52.094;4.870;2023-06-22T05:48:14;101941.19;;;25.25;56.59
51496;BME280;37572;52.094;4.870;2023-06-22T05:50:39;101942.44;;;25.29;56.08
51496;BME280;37572;52.094;4.870;2023-06-22T05:53:04;101941.81;;;25.27;55.63
51496;BME280;37572;52.094;4.870;2023-06-22T05:55:32;101937.25;;;25.21;55.52
51496;BME280;37572;52.094;4.870;2023-06-22T05:57:57;101930.38;;;25.19;55.38
51496;BME280;37572;52.094;4.870;2023-06-22T06:00:22;101927.66;;;25.19;55.30
51496;BME280;37572;52.094;4.870;2023-06-22T06:02:48;101936.88;;;25.18;55.47
51496;BME280;37572;52.094;4.870;2023-06-22T06:05:14;101935.59;;;25.20;55.33
51496;BME280;37572;52.094;4.870;2023-06-22T06:07:40;101928.41;;;25.26;55.55
51496;BME280;37572;52.094;4.870;2023-06-22T06:10:06;101927.53;;;25.32;55.42
51496;BME280;37572;52.094;4.870;2023-06-22T06:12:32;101930.41;;;25.37;55.23
51496;BME280;37572;52.094;4.870;2023-06-22T06:14:57;101920.69;;;25.41;55.15
51496;BME280;37572;52.094;4.870;2023-06-22T06:17:22;101925.22;;;25.47;55.17
51496;BME280;37572;52.094;4.870;2023-06-22T06:19:48;101932.72;;;25.52;55.19
51496;BME280;37572;52.094;4.870;2023-06-22T06:22:13;101922.56;;;25.59;55.33
51496;BME280;37572;52.094;4.870;2023-06-22T06:24:38;101915.38;;;25.65;55.02
51496;BME280;37572;52.094;4.870;2023-06-22T06:27:04;101914.66;;;25.70;54.90
51496;BME280;37572;52.094;4.870;2023-06-22T06:29:30;101921.56;;;25.72;54.66
51496;BME280;37572;52.094;4.870;2023-06-22T06:31:55;101919.66;;;25.73;54.81
51496;BME280;37572;52.094;4.870;2023-06-22T06:34:21;101919.41;;;25.74;54.72
51496;BME280;37572;52.094;4.870;2023-06-22T06:36:47;101915.19;;;25.78;54.73
51496;BME280;37572;52.094;4.870;2023-06-22T06:39:12;101913.66;;;25.82;54.51
51496;BME280;37572;52.094;4.870;2023-06-22T06:41:38;101911.06;;;25.88;54.65
51496;BME280;37572;52.094;4.870;2023-06-22T06:44:03;101907.19;;;25.95;54.38
51496;BME280;37572;52.094;4.870;2023-06-22T06:46:28;101903.31;;;26.03;54.01
51496;BME280;37572;52.094;4.870;2023-06-22T06:48:54;101905.94;;;26.10;54.47
51496;BME280;37572;52.094;4.870;2023-06-22T06:51:19;101901.78;;;26.19;53.91
51496;BME280;37572;52.094;4.870;2023-06-22T06:53:44;101905.25;;;26.26;53.79
51496;BME280;37572;52.094;4.870;2023-06-22T06:56:10;101901.34;;;26.34;53.31
51496;BME280;37572;52.094;4.870;2023-06-22T06:58:36;101899.94;;;26.43;53.37
51496;BME280;37572;52.094;4.870;2023-06-22T07:01:01;101902.44;;;26.56;53.27
51496;BME280;37572;52.094;4.870;2023-06-22T07:03:28;101896.53;;;26.71;53.39
51496;BME280;37572;52.094;4.870;2023-06-22T07:05:53;101903.50;;;26.91;52.76
51496;BME280;37572;52.094;4.870;2023-06-22T07:08:19;101907.16;;;27.08;53.07
51496;BME280;37572;52.094;4.870;2023-06-22T07:10:44;101902.59;;;27.26;52.30
51496;BME280;37572;52.094;4.870;2023-06-22T07:13:09;101904.38;;;27.44;51.63
51496;BME280;37572;52.094;4.870;2023-06-22T07:15:35;101897.31;;;27.60;51.47
51496;BME280;37572;52.094;4.870;2023-06-22T07:18:00;101897.34;;;27.77;50.61
51496;BME280;37572;52.094;4.870;2023-06-22T07:20:25;101892.81;;;27.99;50.46
51496;BME280;37572;52.094;4.870;2023-06-22T07:22:51;101890.28;;;28.27;50.20
51496;BME280;37572;52.094;4.870;2023-06-22T07:25:16;101894.59;;;28.56;49.79
51496;BME280;37572;52.094;4.870;2023-06-22T07:28:00;101884.63;;;28.89;48.78
51496;BME280;37572;52.094;4.870;2023-06-22T07:30:27;101882.56;;;29.19;48.49
51496;BME280;37572;52.094;4.870;2023-06-22T07:32:52;101878.22;;;29.45;48.23
51496;BME280;37572;52.094;4.870;2023-06-22T07:35:18;101878.84;;;29.79;48.13
51496;BME280;37572;52.094;4.870;2023-06-22T07:37:43;101880.25;;;30.14;47.18
51496;BME280;37572;52.094;4.870;2023-06-22T07:40:09;101884.34;;;30.44;46.83
51496;BME280;37572;52.094;4.870;2023-06-22T07:42:34;101882.88;;;30.74;46.13
51496;BME280;37572;52.094;4.870;2023-06-22T07:45:00;101876.38;;;30.90;45.41
51496;BME280;37572;52.094;4.870;2023-06-22T07:47:25;101882.47;;;30.97;45.20
51496;BME280;37572;52.094;4.870;2023-06-22T07:49:53;101879.75;;;31.03;44.89
51496;BME280;37572;52.094;4.870;2023-06-22T07:52:20;101876.47;;;31.11;44.64
51496;BME280;37572;52.094;4.870;2023-06-22T07:54:46;101874.84;;;31.10;44.37
51496;BME280;37572;52.094;4.870;2023-06-22T07:57:11;101873.44;;;31.02;44.60
51496;BME280;37572;52.094;4.870;2023-06-22T07:59:37;101870.31;;;30.88;43.99
51496;BME280;37572;52.094;4.870;2023-06-22T08:02:02;101863.06;;;30.67;43.66
51496;BME280;37572;52.094;4.870;2023-06-22T08:04:28;101864.84;;;30.46;44.37
51496;BME280;37572;52.094;4.870;2023-06-22T08:06:56;101863.03;;;30.24;43.92
51496;BME280;37572;52.094;4.870;2023-06-22T08:09:21;101857.69;;;30.07;44.51
51496;BME280;37572;52.094;4.870;2023-06-22T08:11:46;101849.91;;;29.94;44.57
51496;BME280;37572;52.094;4.870;2023-06-22T08:14:14;101850.34;;;29.80;44.68
51496;BME280;37572;52.094;4.870;2023-06-22T08:16:41;101848.81;;;29.67;44.51
51496;BME280;37572;52.094;4.870;2023-06-22T08:19:06;101844.63;;;29.60;44.53
51496;BME280;37572;52.094;4.870;2023-06-22T08:21:32;101841.00;;;29.54;44.83
51496;BME280;37572;52.094;4.870;2023-06-22T08:23:57;101834.06;;;29.46;44.65
51496;BME280;37572;52.094;4.870;2023-06-22T08:26:22;101836.19;;;29.39;44.85
51496;BME280;37572;52.094;4.870;2023-06-22T08:28:48;101832.31;;;29.35;45.11
51496;BME280;37572;52.094;4.870;2023-06-22T08:31:13;101827.09;;;29.33;45.33
51496;BME280;37572;52.094;4.870;2023-06-22T08:33:39;101828.47;;;29.36;45.63
51496;BME280;37572;52.094;4.870;2023-06-22T08:36:04;101833.44;;;29.39;45.80
51496;BME280;37572;52.094;4.870;2023-06-22T08:38:31;101834.84;;;29.42;44.78
51496;BME280;37572;52.094;4.870;2023-06-22T08:40:56;101829.34;;;29.42;44.69
51496;BME280;37572;52.094;4.870;2023-06-22T08:43:22;101827.69;;;29.41;45.04
51496;BME280;37572;52.094;4.870;2023-06-22T08:45:47;101825.00;;;29.46;44.73
51496;BME280;37572;52.094;4.870;2023-06-22T08:48:12;101826.75;;;29.57;44.68
51496;BME280;37572;52.094;4.870;2023-06-22T08:50:38;101820.53;;;29.67;44.13
51496;BME280;37572;52.094;4.870;2023-06-22T08:53:05;101827.81;;;29.78;44.25
51496;BME280;37572;52.094;4.870;2023-06-22T08:55:31;101821.59;;;29.88;43.69
51496;BME280;37572;52.094;4.870;2023-06-22T08:57:56;101818.31;;;29.91;43.36
51496;BME280;37572;52.094;4.870;2023-06-22T09:00:22;101819.91;;;29.87;43.42
51496;BME280;37572;52.094;4.870;2023-06-22T09:02:47;101821.75;;;29.76;43.61
51496;BME280;37572;52.094;4.870;2023-06-22T09:05:13;101821.88;;;29.64;43.68
51496;BME280;37572;52.094;4.870;2023-06-22T09:07:39;101826.47;;;29.53;43.71
51496;BME280;37572;52.094;4.870;2023-06-22T09:10:05;101808.28;;;29.47;43.82
51496;BME280;37572;52.094;4.870;2023-06-22T09:12:30;101809.34;;;29.41;43.76
51496;BME280;37572;52.094;4.870;2023-06-22T09:14:58;101812.00;;;29.36;43.48
51496;BME280;37572;52.094;4.870;2023-06-22T09:17:25;101811.41;;;29.29;43.90
51496;BME280;37572;52.094;4.870;2023-06-22T09:19:50;101807.78;;;29.23;43.79
51496;BME280;37572;52.094;4.870;2023-06-22T09:22:15;101811.53;;;29.17;43.58
51496;BME280;37572;52.094;4.870;2023-06-22T09:24:40;101802.81;;;29.20;44.22
51496;BME280;37572;52.094;4.870;2023-06-22T09:27:06;101807.28;;;29.26;43.66
51496;BME280;37572;52.094;4.870;2023-06-22T09:29:31;101800.47;;;29.34;43.38
51496;BME280;37572;52.094;4.870;2023-06-22T09:31:59;101801.13;;;29.41;43.83
51496;BME280;37572;52.094;4.870;2023-06-22T09:34:24;101813.22;;;29.45;43.40
51496;BME280;37572;52.094;4.870;2023-06-22T09:36:50;101808.53;;;29.46;43.52
51496;BME280;37572;52.094;4.870;2023-06-22T09:39:16;101791.22;;;29.40;43.53
51496;BME280;37572;52.094;4.870;2023-06-22T09:41:41;101807.13;;;29.38;43.37
51496;BME280;37572;52.094;4.870;2023-06-22T09:44:07;101798.25;;;29.31;42.80
51496;BME280;37572;52.094;4.870;2023-06-22T09:46:32;101807.00;;;29.28;43.35
51496;BME280;37572;52.094;4.870;2023-06-22T09:48:57;101802.34;;;29.28;43.37
51496;BME280;37572;52.094;4.870;2023-06-22T09:51:23;101801.25;;;29.29;43.63
51496;BME280;37572;52.094;4.870;2023-06-22T09:53:49;101801.53;;;29.28;43.51
51496;BME280;37572;52.094;4.870;2023-06-22T09:56:15;101787.75;;;29.23;42.94
51496;BME280;37572;52.094;4.870;2023-06-22T09:58:42;101797.00;;;29.16;43.09
51496;BME280;37572;52.094;4.870;2023-06-22T10:01:08;101789.28;;;29.13;42.98
51496;BME280;37572;52.094;4.870;2023-06-22T10:03:36;101782.72;;;29.14;43.25
51496;BME280;37572;52.094;4.870;2023-06-22T10:06:01;101787.09;;;29.15;42.63
51496;BME280;37572;52.094;4.870;2023-06-22T10:08:27;101783.28;;;29.16;42.62
51496;BME280;37572;52.094;4.870;2023-06-22T10:10:52;101789.34;;;29.19;42.72
51496;BME280;37572;52.094;4.870;2023-06-22T10:13:18;101784.19;;;29.22;43.33
51496;BME280;37572;52.094;4.870;2023-06-22T10:15:44;101786.16;;;29.27;43.27
51496;BME280;37572;52.094;4.870;2023-06-22T10:18:15;101781.22;;;29.29;43.56
51496;BME280;37572;52.094;4.870;2023-06-22T10:20:40;101786.72;;;29.29;43.50
51496;BME280;37572;52.094;4.870;2023-06-22T10:23:05;101786.72;;;29.29;43.94
51496;BME280;37572;52.094;4.870;2023-06-22T10:25:31;101783.41;;;29.27;44.01
51496;BME280;37572;52.094;4.870;2023-06-22T10:27:56;101786.66;;;29.24;44.03
51496;BME280;37572;52.094;4.870;2023-06-22T10:30:22;101783.34;;;29.22;44.06
51496;BME280;37572;52.094;4.870;2023-06-22T10:32:48;101790.75;;;29.21;44.13
51496;BME280;37572;52.094;4.870;2023-06-22T10:35:14;101792.66;;;29.21;44.18
51496;BME280;37572;52.094;4.870;2023-06-22T10:37:44;101791.28;;;29.18;44.86
51496;BME280;37572;52.094;4.870;2023-06-22T10:40:14;101789.84;;;29.15;44.56
51496;BME280;37572;52.094;4.870;2023-06-22T10:42:40;101790.94;;;29.14;44.69
51496;BME280;37572;52.094;4.870;2023-06-22T10:45:06;101797.75;;;29.12;44.99
51496;BME280;37572;52.094;4.870;2023-06-22T10:47:33;101801.25;;;29.07;44.47
51496;BME280;37572;52.094;4.870;2023-06-22T10:49:58;101803.94;;;29.02;44.14
51496;BME280;37572;52.094;4.870;2023-06-22T10:52:23;101795.66;;;28.97;44.61
51496;BME280;37572;52.094;4.870;2023-06-22T10:54:49;101794.28;;;28.94;44.33
51496;BME280;37572;52.094;4.870;2023-06-22T10:57:14;101797.84;;;28.95;44.78
51496;BME280;37572;52.094;4.870;2023-06-22T10:59:39;101800.56;;;28.95;44.85
51496;BME280;37572;52.094;4.870;2023-06-22T11:02:05;101801.41;;;28.95;44.91
51496;BME280;37572;52.094;4.870;2023-06-22T11:04:30;101799.47;;;28.96;45.13
51496;BME280;37572;52.094;4.870;2023-06-22T11:06:56;101801.16;;;28.97;45.49
51496;BME280;37572;52.094;4.870;2023-06-22T11:09:22;101794.34;;;29.00;45.42
51496;BME280;37572;52.094;4.870;2023-06-22T11:11:47;101795.16;;;29.00;45.88
51496;BME280;37572;52.094;4.870;2023-06-22T11:14:13;101798.41;;;28.97;46.01
51496;BME280;37572;52.094;4.870;2023-06-22T11:16:38;101797.78;;;28.90;47.17
51496;BME280;37572;52.094;4.870;2023-06-22T11:19:05;101798.47;;;28.80;47.74
51496;BME280;37572;52.094;4.870;2023-06-22T11:21:31;101794.78;;;28.69;47.76
51496;BME280;37572;52.094;4.870;2023-06-22T11:23:57;101796.06;;;28.62;47.81
51496;BME280;37572;52.094;4.870;2023-06-22T11:26:22;101801.69;;;28.55;47.56
51496;BME280;37572;52.094;4.870;2023-06-22T11:28:48;101798.88;;;28.50;47.77
51496;BME280;37572;52.094;4.870;2023-06-22T11:31:14;101794.16;;;28.45;48.44
51496;BME280;37572;52.094;4.870;2023-06-22T11:33:39;101794.34;;;28.38;48.35
51496;BME280;37572;52.094;4.870;2023-06-22T11:36:04;101783.06;;;28.35;48.87
51496;BME280;37572;52.094;4.870;2023-06-22T11:38:30;101789.28;;;28.30;48.49
51496;BME280;37572;52.094;4.870;2023-06-22T11:40:57;101788.72;;;28.28;49.31
51496;BME280;37572;52.094;4.870;2023-06-22T11:43:22;101779.91;;;28.26;49.45
51496;BME280;37572;52.094;4.870;2023-06-22T11:45:48;101778.78;;;28.22;48.84
51496;BME280;37572;52.094;4.870;2023-06-22T11:48:13;101767.75;;;28.17;49.42
51496;BME280;37572;52.094;4.870;2023-06-22T11:50:38;101763.94;;;28.18;49.83
51496;BME280;37572;52.094;4.870;2023-06-22T11:53:04;101763.94;;;28.18;49.61
51496;BME280;37572;52.094;4.870;2023-06-22T11:55:32;101754.88;;;28.17;49.52
51496;BME280;37572;52.094;4.870;2023-06-22T11:57:57;101754.06;;;28.17;50.74
51496;BME280;37572;52.094;4.870;2023-06-22T12:00:28;101742.22;;;28.11;50.79
51496;BME280;37572;52.094;4.870;2023-06-22T12:02:54;101740.72;;;28.03;50.76
51496;BME280;37572;52.094;4.870;2023-06-22T12:05:20;101735.69;;;27.95;50.88
51496;BME280;37572;52.094;4.870;2023-06-22T12:07:49;101739.88;;;27.86;51.11
51496;BME280;37572;52.094;4.870;2023-06-22T12:10:15;101731.00;;;27.79;51.08
51496;BME280;37572;52.094;4.870;2023-06-22T12:12:41;101723.56;;;27.74;51.46
51496;BME280;37572;52.094;4.870;2023-06-22T12:15:08;101727.63;;;27.72;51.57
51496;BME280;37572;52.094;4.870;2023-06-22T12:17:34;101721.59;;;27.69;51.64
51496;BME280;37572;52.094;4.870;2023-06-22T12:19:59;101724.56;;;27.68;51.71
51496;BME280;37572;52.094;4.870;2023-06-22T12:22:25;101715.19;;;27.64;51.96
51496;BME280;37572;52.094;4.870;2023-06-22T12:24:50;101720.56;;;27.59;51.39
51496;BME280;37572;52.094;4.870;2023-06-22T12:27:17;101726.88;;;27.59;51.76
51496;BME280;37572;52.094;4.870;2023-06-22T12:29:43;101717.84;;;27.59;52.07
51496;BME280;37572;52.094;4.870;2023-06-22T12:32:08;101718.66;;;27.59;52.23
51496;BME280;37572;52.094;4.870;2023-06-22T12:34:34;101717.59;;;27.60;52.10
51496;BME280;37572;52.094;4.870;2023-06-22T12:36:59;101724.38;;;27.58;51.67
51496;BME280;37572;52.094;4.870;2023-06-22T12:39:24;101718.34;;;27.56;52.36
51496;BME280;37572;52.094;4.870;2023-06-22T12:41:49;101715.28;;;27.52;52.44
51496;BME280;37572;52.094;4.870;2023-06-22T12:44:15;101717.19;;;27.52;52.49
51496;BME280;37572;52.094;4.870;2023-06-22T12:46:40;101715.28;;;27.52;52.17
51496;BME280;37572;52.094;4.870;2023-06-22T12:49:05;101711.22;;;27.55;52.70
51496;BME280;37572;52.094;4.870;2023-06-22T12:51:31;101716.41;;;27.56;52.70
51496;BME280;37572;52.094;4.870;2023-06-22T12:53:56;101708.50;;;27.55;52.36